createdAt,value
2023-04-01T00:01:43.489Z,33.92
2023-04-01T00:06:44.914Z,34.21
2023-04-01T00:11:46.401Z,34.06
2023-04-01T00:16:47.836Z,34.06
2023-04-01T00:21:49.247Z,34.10
2023-04-01T00:26:50.617Z,34.05
2023-04-01T00:31:52.199Z,34.06
2023-04-01T00:36:53.700Z,34.00
2023-04-01T00:41:55.117Z,34.21
2023-04-01T00:46:56.894Z,34.06
2023-04-01T00:51:58.462Z,34.05
2023-04-01T00:57:18.930Z,34.44
2023-04-01T01:02:20.378Z,34.43
2023-04-01T01:07:40.159Z,34.43
2023-04-01T01:12:56.677Z,34.29
2023-04-01T01:18:28.842Z,34.33
2023-04-01T01:24:08.121Z,34.25
2023-04-01T01:29:21.512Z,34.28
2023-04-01T01:34:26.426Z,34.04
2023-04-01T01:39:30.102Z,34.06
2023-04-01T01:44:31.556Z,34.01
2023-04-01T01:49:33.304Z,34.07
2023-04-01T01:54:34.710Z,33.96
2023-04-01T01:59:36.820Z,33.90
2023-04-01T02:04:40.209Z,34.03
2023-04-01T02:09:41.678Z,33.95
2023-04-01T02:14:58.219Z,33.69
2023-04-01T02:20:07.189Z,33.70
2023-04-01T02:25:11.297Z,33.75
2023-04-01T02:30:13.714Z,33.70
2023-04-01T02:35:16.405Z,33.72
2023-04-01T02:40:18.223Z,33.46
2023-04-01T02:45:19.703Z,33.37
2023-04-01T02:50:21.110Z,33.38
2023-04-01T02:55:22.551Z,33.37
2023-04-01T03:00:23.963Z,33.42
2023-04-01T03:05:25.403Z,33.33
2023-04-01T03:10:26.810Z,33.38
2023-04-01T03:15:28.198Z,33.41
2023-04-01T03:20:29.654Z,33.17
2023-04-01T03:25:31.720Z,33.28
2023-04-01T03:30:34.502Z,33.31
2023-04-01T03:35:36.903Z,33.11
2023-04-01T03:40:39.221Z,33.12
2023-04-01T03:45:50.368Z,33.03
2023-04-01T03:50:51.855Z,33.05
2023-04-01T03:55:53.331Z,33.07
2023-04-01T04:00:55.537Z,32.88
2023-04-01T04:05:57.413Z,32.96
2023-04-01T04:10:58.851Z,32.72
2023-04-01T04:16:00.356Z,32.78
2023-04-01T04:21:01.799Z,32.70
2023-04-01T04:26:13.041Z,32.53
2023-04-01T04:31:19.861Z,32.54
2023-04-01T04:36:21.472Z,32.47
2023-04-01T04:41:22.993Z,32.37
2023-04-01T04:46:24.732Z,32.36
2023-04-01T04:51:26.247Z,32.50
2023-04-01T04:56:27.635Z,32.48
2023-04-01T05:01:29.106Z,32.34
2023-04-01T05:06:30.749Z,32.31
2023-04-01T05:11:32.196Z,32.35
2023-04-01T05:16:33.638Z,32.17
2023-04-01T05:21:35.034Z,32.37
2023-04-01T05:26:37.592Z,32.42
2023-04-01T05:31:38.982Z,32.33
2023-04-01T05:36:40.872Z,32.47
2023-04-01T05:41:42.447Z,32.53
2023-04-01T05:46:43.838Z,32.46
2023-04-01T05:51:45.334Z,32.62
2023-04-01T05:56:48.588Z,32.53
2023-04-01T06:01:50.437Z,32.63
2023-04-01T06:06:52.692Z,32.69
2023-04-01T06:12:01.579Z,33.03
2023-04-01T06:17:06.223Z,32.79
2023-04-01T06:22:34.729Z,32.69
2023-04-01T06:28:23.285Z,32.74
2023-04-01T06:33:47.350Z,32.70
2023-04-01T06:39:08.901Z,32.64
2023-04-01T06:44:44.205Z,32.47
2023-04-01T06:50:04.063Z,32.39
2023-04-01T06:55:22.936Z,32.36
2023-04-01T07:00:30.548Z,32.12
2023-04-01T07:05:32.305Z,32.29
2023-04-01T07:10:43.994Z,32.03
2023-04-01T07:15:51.366Z,31.94
2023-04-01T07:20:52.764Z,32.18
2023-04-01T07:26:00.815Z,31.98
2023-04-01T07:31:12.426Z,31.79
2023-04-01T07:36:27.608Z,31.99
2023-04-01T07:42:00.161Z,31.92
2023-04-01T07:47:01.408Z,31.84
2023-04-01T07:52:09.645Z,31.78
2023-04-01T07:57:32.492Z,31.91
2023-04-01T08:03:03.848Z,31.79
2023-04-01T08:08:27.237Z,31.89
2023-04-01T08:13:59.378Z,32.03
2023-04-01T08:19:18.818Z,32.04
2023-04-01T08:24:46.407Z,32.10
2023-04-01T08:30:00.802Z,32.20
2023-04-01T08:35:09.644Z,31.81
2023-04-01T08:40:38.878Z,31.71
2023-04-01T08:46:18.412Z,31.63
2023-04-01T08:51:47.038Z,31.89
2023-04-01T08:57:20.745Z,31.95
2023-04-01T09:03:10.405Z,32.10
2023-04-01T09:08:49.403Z,32.36
2023-04-01T09:14:07.937Z,32.02
2023-04-01T09:19:17.961Z,31.94
2023-04-01T09:24:25.385Z,31.83
2023-04-01T09:29:55.190Z,31.79
2023-04-01T09:35:25.805Z,31.84
2023-04-01T09:40:48.736Z,31.87
2023-04-01T09:46:12.963Z,31.90
2023-04-01T09:51:38.582Z,31.85
2023-04-01T09:56:46.020Z,31.79
2023-04-01T10:02:14.246Z,31.68
2023-04-01T10:07:46.458Z,31.60
2023-04-01T10:12:56.702Z,31.66
2023-04-01T10:18:24.190Z,31.54
2023-04-01T10:23:40.867Z,31.63
2023-04-01T10:28:57.264Z,31.63
2023-04-01T10:34:21.511Z,31.70
2023-04-01T10:39:31.844Z,31.71
2023-04-01T10:44:46.411Z,31.62
2023-04-01T10:50:17.874Z,31.73
2023-04-01T10:55:38.169Z,31.60
2023-04-01T11:01:08.773Z,31.72
2023-04-01T11:06:22.083Z,31.96
2023-04-01T11:11:56.426Z,31.90
2023-04-01T11:17:19.972Z,32.30
2023-04-01T11:22:53.635Z,32.30
2023-04-01T11:28:21.929Z,32.43
2023-04-01T11:33:36.997Z,32.50
2023-04-01T11:38:54.318Z,32.59
2023-04-01T11:44:21.463Z,33.01
2023-04-01T11:49:41.058Z,33.04
2023-04-01T11:54:58.568Z,32.93
2023-04-01T12:00:27.949Z,32.93
2023-04-01T12:05:38.509Z,33.09
2023-04-01T12:10:57.526Z,32.93
2023-04-01T12:16:23.566Z,33.06
2023-04-01T12:21:45.379Z,33.15
2023-04-01T12:27:11.748Z,33.32
2023-04-01T12:32:30.135Z,33.65
2023-04-01T12:37:56.157Z,33.56
2023-04-01T12:43:06.024Z,33.45
2023-04-01T12:48:34.884Z,33.39
2023-04-01T12:53:43.496Z,33.70
2023-04-01T12:58:44.705Z,33.78
2023-04-01T13:04:21.354Z,33.74
2023-04-01T13:09:36.027Z,33.58
2023-04-01T13:15:04.362Z,32.93
2023-04-01T13:20:19.119Z,32.68
2023-04-01T13:25:36.196Z,32.55
2023-04-01T13:30:41.117Z,32.37
2023-04-01T13:36:09.854Z,32.33
2023-04-01T13:41:30.943Z,32.21
2023-04-01T13:46:55.617Z,32.04
2023-04-01T13:52:19.477Z,31.92
2023-04-01T13:57:38.347Z,31.70
2023-04-01T14:02:55.361Z,31.81
2023-04-01T14:08:18.774Z,31.70
2023-04-01T14:13:47.009Z,31.53
2023-04-01T14:18:54.867Z,31.45
2023-04-01T14:24:08.605Z,31.58
2023-04-01T14:29:24.966Z,31.72
2023-04-01T14:34:34.098Z,31.72
2023-04-01T14:39:45.756Z,31.80
2023-04-01T14:45:13.394Z,31.76
2023-04-01T14:50:45.404Z,32.16
2023-04-01T14:56:00.313Z,32.64
2023-04-01T15:01:11.763Z,32.31
2023-04-01T15:06:33.132Z,31.86
2023-04-01T15:11:47.404Z,31.85
2023-04-01T15:17:16.187Z,31.90
2023-04-01T15:22:31.688Z,31.94
2023-04-01T15:28:19.466Z,32.24
2023-04-01T15:33:50.669Z,32.13
2023-04-01T15:38:53.843Z,32.58
2023-04-01T15:43:55.340Z,32.64
2023-04-01T15:49:02.757Z,32.54
2023-04-01T15:54:13.847Z,32.67
2023-04-01T15:59:36.745Z,32.61
2023-04-01T16:05:22.914Z,32.80
2023-04-01T16:11:01.589Z,32.75
2023-04-01T16:16:11.141Z,32.54
2023-04-01T16:21:38.739Z,32.77
2023-04-01T16:26:49.523Z,32.56
2023-04-01T16:32:12.570Z,32.40
2023-04-01T16:37:18.101Z,32.53
2023-04-01T16:42:36.925Z,32.46
2023-04-01T16:47:46.224Z,32.72
2023-04-01T16:53:26.355Z,32.74
2023-04-01T16:58:35.551Z,32.96
2023-04-01T17:03:42.570Z,33.44
2023-04-01T17:09:08.499Z,33.63
2023-04-01T17:14:23.166Z,34.01
2023-04-01T17:20:01.970Z,34.18
2023-04-01T17:25:40.248Z,34.52
2023-04-01T17:30:49.483Z,35.08
2023-04-01T17:36:17.474Z,35.29
2023-04-01T17:41:38.126Z,35.41
2023-04-01T17:46:45.658Z,35.58
2023-04-01T17:52:20.721Z,35.97
2023-04-01T17:57:41.479Z,35.80
2023-04-01T18:03:04.741Z,35.71
2023-04-01T18:08:09.878Z,35.47
2023-04-01T18:13:49.859Z,35.83
2023-04-01T18:19:08.029Z,36.01
2023-04-01T18:24:15.787Z,36.04
2023-04-01T18:29:18.777Z,36.03
2023-04-01T18:34:42.577Z,36.44
2023-04-01T18:39:48.547Z,36.40
2023-04-01T18:44:56.955Z,36.64
2023-04-01T18:50:30.864Z,36.62
2023-04-01T18:55:52.538Z,36.60
2023-04-01T19:01:14.972Z,36.82
2023-04-01T19:06:32.859Z,36.89
2023-04-01T19:11:59.774Z,36.69
2023-04-01T19:17:06.390Z,36.58
2023-04-01T19:22:36.424Z,36.50
2023-04-01T19:27:42.539Z,36.38
2023-04-01T19:33:05.367Z,36.34
2023-04-01T19:38:20.862Z,36.40
2023-04-01T19:43:31.319Z,36.51
2023-04-01T19:48:47.797Z,36.46
2023-04-01T19:53:49.446Z,36.42
2023-04-01T19:59:08.670Z,36.38
2023-04-01T20:04:31.184Z,36.75
2023-04-01T20:09:59.666Z,36.48
2023-04-01T20:15:02.910Z,36.65
2023-04-01T20:20:22.477Z,36.92
2023-04-01T20:25:24.841Z,36.89
2023-04-01T20:30:37.946Z,36.60
2023-04-01T20:36:11.487Z,36.89
2023-04-01T20:41:27.466Z,37.09
2023-04-01T20:46:56.442Z,37.03
2023-04-01T20:52:01.242Z,37.24
2023-04-01T20:57:33.562Z,37.26
2023-04-01T21:02:49.034Z,37.33
2023-04-01T21:08:13.849Z,37.38
2023-04-01T21:13:32.578Z,37.46
2023-04-01T21:18:56.513Z,37.77
2023-04-01T21:24:56.044Z,37.75
2023-04-01T21:30:15.504Z,37.56
2023-04-01T21:35:32.952Z,37.79
2023-04-01T21:40:56.371Z,37.71
2023-04-01T21:46:18.548Z,37.53
2023-04-01T21:51:42.686Z,37.87
2023-04-01T21:57:18.517Z,38.13
2023-04-01T22:02:50.863Z,37.82
2023-04-01T22:08:04.672Z,37.84
2023-04-01T22:13:17.734Z,37.66
2023-04-01T22:18:23.728Z,37.50
2023-04-01T22:23:29.709Z,37.68
2023-04-01T22:28:33.671Z,37.62
2023-04-01T22:33:44.213Z,37.49
2023-04-01T22:38:57.363Z,37.32
2023-04-01T22:43:58.762Z,37.48
2023-04-01T22:49:23.400Z,37.25
2023-04-01T22:54:33.774Z,37.24
2023-04-01T22:59:53.481Z,37.07
2023-04-01T23:05:00.350Z,36.99
2023-04-01T23:10:02.298Z,36.89
2023-04-01T23:15:03.964Z,36.90
2023-04-01T23:20:27.069Z,36.98
2023-04-01T23:25:40.724Z,36.91
2023-04-01T23:30:41.976Z,36.72
2023-04-01T23:36:05.923Z,36.60
2023-04-01T23:41:07.513Z,36.39
2023-04-01T23:46:09.289Z,36.33
2023-04-01T23:51:39.607Z,36.27
2023-04-01T23:56:44.310Z,36.07
